createdAt,value
2023-04-21T19:34:00.277Z,97083.00
2023-04-21T19:36:27.299Z,97082.66
2023-04-21T19:38:54.201Z,97087.97
2023-04-21T19:41:21.171Z,97081.59
2023-04-21T19:43:48.653Z,97085.34
2023-04-21T19:46:17.772Z,97097.13
2023-04-21T19:48:45.249Z,97098.28
2023-04-21T19:51:12.252Z,97097.53
2023-04-21T19:53:41.711Z,97095.66
2023-04-21T19:56:08.879Z,97094.72
2023-04-21T19:58:42.232Z,97104.38
2023-04-21T20:01:09.693Z,97099.09
2023-04-21T20:03:37.282Z,97101.00
2023-04-21T20:06:08.645Z,97103.66
2023-04-21T20:08:42.800Z,97099.13
2023-04-21T20:11:15.333Z,97077.63
2023-04-21T20:13:50.944Z,97100.47
2023-04-21T20:16:23.109Z,97089.75
2023-04-21T20:18:50.351Z,97098.81
2023-04-21T20:21:19.607Z,97092.03
2023-04-21T20:23:46.903Z,97100.72
2023-04-21T20:26:21.893Z,97092.09
2023-04-21T20:28:48.876Z,97107.97
2023-04-21T20:31:15.978Z,97090.97
2023-04-21T20:33:45.156Z,97103.84
2023-04-21T20:36:14.909Z,97095.56
2023-04-21T20:38:46.653Z,97100.84
2023-04-21T20:41:18.801Z,97099.72
2023-04-21T20:43:47.053Z,97109.75
2023-04-21T20:46:16.897Z,97109.94
2023-04-21T20:48:45.345Z,97113.53
2023-04-21T20:51:13.733Z,97109.75
2023-04-21T20:53:45.768Z,97111.63
2023-04-21T20:56:16.078Z,97109.19
2023-04-21T20:58:45.459Z,97114.50
2023-04-21T21:01:14.017Z,97121.06
2023-04-21T21:03:42.363Z,97108.03
2023-04-21T21:06:10.537Z,97120.88
2023-04-21T21:08:37.801Z,97119.53
2023-04-21T21:11:06.733Z,97099.34
2023-04-21T21:13:39.842Z,97128.22
2023-04-21T21:16:07.802Z,97106.69
2023-04-21T21:18:36.133Z,97118.56
2023-04-21T21:21:08.352Z,97105.50
2023-04-21T21:23:37.010Z,97134.44
2023-04-21T21:26:04.007Z,97097.56
2023-04-21T21:28:31.256Z,97133.66
2023-04-21T21:30:59.454Z,97121.16
2023-04-21T21:33:32.842Z,97119.63
2023-04-21T21:36:04.605Z,97119.03
2023-04-21T21:38:34.683Z,97132.44
2023-04-21T21:41:04.558Z,97119.56
2023-04-21T21:43:34.070Z,97119.16
2023-04-21T21:46:03.304Z,97131.59
2023-04-21T21:48:30.440Z,97124.72
2023-04-21T21:50:58.033Z,97132.03
2023-04-21T21:53:28.205Z,97125.75
2023-04-21T21:55:55.707Z,97123.44
2023-04-21T21:58:25.723Z,97130.19
2023-04-21T22:00:53.148Z,97128.09
2023-04-21T22:03:21.933Z,97123.91
2023-04-21T22:05:49.212Z,97128.03
2023-04-21T22:08:16.202Z,97132.88
2023-04-21T22:10:46.615Z,97134.53
2023-04-21T22:13:13.540Z,97138.25
2023-04-21T22:15:40.849Z,97136.78
2023-04-21T22:18:10.045Z,97131.03
2023-04-21T22:20:38.654Z,97129.69
2023-04-21T22:23:06.340Z,97128.88
2023-04-21T22:25:33.711Z,97134.72
2023-04-21T22:28:07.497Z,97133.94
2023-04-21T22:30:34.672Z,97137.69
2023-04-21T22:33:04.227Z,97133.91
2023-04-21T22:35:32.876Z,97139.13
2023-04-21T22:38:00.807Z,97127.03
2023-04-21T22:40:28.996Z,97130.03
2023-04-21T22:42:56.030Z,97135.69
2023-04-21T22:45:25.526Z,97136.16
2023-04-21T22:47:56.063Z,97139.66
2023-04-21T22:50:25.816Z,97130.53
2023-04-21T22:52:53.753Z,97127.88
2023-04-21T22:55:21.325Z,97130.81
2023-04-21T22:57:50.489Z,97133.09
2023-04-21T23:00:23.579Z,97137.78
2023-04-21T23:02:51.933Z,97127.59
2023-04-21T23:05:20.545Z,97115.03
2023-04-21T23:07:48.959Z,97136.22
2023-04-21T23:10:15.984Z,97137.66
2023-04-21T23:12:45.577Z,97128.56
2023-04-21T23:15:12.687Z,97133.00
2023-04-21T23:17:39.659Z,97136.19
2023-04-21T23:20:07.684Z,97137.06
2023-04-21T23:22:36.662Z,97124.59
2023-04-21T23:25:06.141Z,97126.22
2023-04-21T23:27:33.137Z,97126.75
2023-04-21T23:30:01.819Z,97126.03
2023-04-21T23:32:30.722Z,97128.06
2023-04-21T23:35:01.258Z,97120.69
2023-04-21T23:37:28.305Z,97128.19
2023-04-21T23:39:55.221Z,97134.50
2023-04-21T23:42:28.151Z,97124.53
2023-04-21T23:44:56.388Z,97122.56
2023-04-21T23:47:23.459Z,97127.03
2023-04-21T23:49:50.759Z,97134.72
2023-04-21T23:52:18.094Z,97120.84
2023-04-21T23:54:46.645Z,97123.88
2023-04-21T23:57:14.530Z,97121.72
2023-04-21T23:59:42.351Z,97133.84
